Time;durP1;ratioP1;P1;durP2;ratioP2;P2;SDS_P1;SDS_P2;PMS_P1;PMS_P2;Temp;Humidity;BMP_temperature;BMP_pressure;BME280_temperature;BME280_humidity;BME280_pressure;Samples;Min_cycle;Max_cycle;Signal;HPM_P1;HPM_P2
2024/01/05 00:01:24;;;;;;;35.77;19.70;;;;;;;;;;5100970;28;20442;-68
2024/01/05 00:03:50;;;;;;;34.40;20.10;;;;;;;;;;5099181;28;20456;-67
2024/01/05 00:06:18;;;;;;;33.40;18.53;;;;;;;;;;5103500;28;21040;-67
2024/01/05 00:08:45;;;;;;;38.13;19.10;;;;;;;;;;5097091;28;20946;-67
2024/01/05 00:11:16;;;;;;;32.50;18.50;;;;;;;;;;5082634;28;20456;-67
2024/01/05 00:13:43;;;;;;;32.17;19.13;;;;;;;;;;5095578;28;20455;-68
2024/01/05 00:16:16;;;;;;;36.73;18.90;;;;;;;;;;5095651;28;20571;-69
2024/01/05 00:18:42;;;;;;;32.83;20.13;;;;;;;;;;5101069;28;20443;-71
2024/01/05 00:21:09;;;;;;;34.20;19.30;;;;;;;;;;5100380;28;20455;-70
2024/01/05 00:23:36;;;;;;;32.17;18.60;;;;;;;;;;5097521;28;20498;-70
2024/01/05 00:26:03;;;;;;;34.47;19.40;;;;;;;;;;5103848;28;20552;-72
2024/01/05 00:28:30;;;;;;;33.70;18.13;;;;;;;;;;5093613;28;20494;-70
2024/01/05 00:30:58;;;;;;;29.87;19.07;;;;;;;;;;5090733;28;20467;-71
2024/01/05 00:33:25;;;;;;;31.50;17.37;;;;;;;;;;5087007;28;20456;-71
2024/01/05 00:35:52;;;;;;;37.37;20.03;;;;;;;;;;5090531;28;20486;-70
2024/01/05 00:38:18;;;;;;;31.67;18.50;;;;;;;;;;5096648;28;20530;-70
2024/01/05 00:40:46;;;;;;;29.03;17.77;;;;;;;;;;5092083;28;20474;-70
2024/01/05 00:43:12;;;;;;;35.50;19.27;;;;;;;;;;5109692;28;20513;-72
2024/01/05 00:45:39;;;;;;;35.30;18.47;;;;;;;;;;5099340;28;20506;-72
2024/01/05 00:48:05;;;;;;;31.10;19.43;;;;;;;;;;5099280;28;20484;-72
2024/01/05 00:50:32;;;;;;;34.57;19.17;;;;;;;;;;5095712;28;21059;-72
2024/01/05 00:52:58;;;;;;;38.30;19.20;;;;;;;;;;5097951;28;20461;-70
2024/01/05 00:55:24;;;;;;;40.27;21.00;;;;;;;;;;5092739;28;20648;-71
2024/01/05 00:57:52;;;;;;;34.20;18.70;;;;;;;;;;5095130;28;21103;-69
2024/01/05 01:00:19;;;;;;;39.67;20.63;;;;;;;;;;5088029;28;20567;-69
2024/01/05 01:02:45;;;;;;;34.03;18.93;;;;;;;;;;5093426;28;20498;-68
2024/01/05 01:05:11;;;;;;;35.63;19.80;;;;;;;;;;5091428;28;20477;-70
2024/01/05 01:07:40;;;;;;;36.10;19.50;;;;;;;;;;5097472;28;20519;-71
2024/01/05 01:10:07;;;;;;;32.77;18.53;;;;;;;;;;5090449;28;20454;-71
2024/01/05 01:12:33;;;;;;;35.37;18.73;;;;;;;;;;5091575;28;20459;-70
2024/01/05 01:15:01;;;;;;;33.00;17.30;;;;;;;;;;5096506;28;20507;-70
2024/01/05 01:17:29;;;;;;;39.17;18.37;;;;;;;;;;5091332;28;20511;-70
2024/01/05 01:19:55;;;;;;;36.13;18.77;;;;;;;;;;5101659;28;20485;-70
2024/01/05 01:22:22;;;;;;;30.80;17.10;;;;;;;;;;5103167;28;20550;-69
2024/01/05 01:24:48;;;;;;;30.33;16.03;;;;;;;;;;5095367;28;20505;-70
2024/01/05 01:27:15;;;;;;;34.40;16.60;;;;;;;;;;5101149;28;20458;-70
2024/01/05 01:29:41;;;;;;;36.73;17.20;;;;;;;;;;5099296;28;20528;-71
2024/01/05 01:32:09;;;;;;;32.50;18.13;;;;;;;;;;5080039;28;20467;-73
2024/01/05 01:34:36;;;;;;;37.40;16.20;;;;;;;;;;5097982;28;20951;-72
2024/01/05 01:37:03;;;;;;;29.00;16.73;;;;;;;;;;5092911;28;20546;-72
2024/01/05 01:39:30;;;;;;;35.47;16.60;;;;;;;;;;5092036;28;20994;-72
2024/01/05 01:41:57;;;;;;;35.13;18.50;;;;;;;;;;5095231;28;21864;-72
2024/01/05 01:44:24;;;;;;;33.20;16.23;;;;;;;;;;5093090;28;20452;-71
2024/01/05 01:46:51;;;;;;;37.57;15.60;;;;;;;;;;5087816;28;21097;-72
2024/01/05 01:49:19;;;;;;;34.77;16.13;;;;;;;;;;5096516;28;20524;-72
2024/01/05 01:51:46;;;;;;;39.40;15.60;;;;;;;;;;5095312;28;20539;-71
2024/01/05 01:54:12;;;;;;;33.50;16.77;;;;;;;;;;5089316;28;20966;-72
2024/01/05 01:56:39;;;;;;;33.40;16.90;;;;;;;;;;5093210;28;20543;-72
2024/01/05 01:59:06;;;;;;;32.27;16.40;;;;;;;;;;5095983;28;20490;-73
2024/01/05 02:01:32;;;;;;;29.70;16.00;;;;;;;;;;5105151;28;20502;-74
2024/01/05 02:03:59;;;;;;;27.57;16.47;;;;;;;;;;5094908;28;20443;-72
2024/01/05 02:06:27;;;;;;;35.00;17.20;;;;;;;;;;5089724;28;20558;-73
2024/01/05 02:08:53;;;;;;;30.73;16.10;;;;;;;;;;5097900;28;20495;-73
2024/01/05 02:11:20;;;;;;;28.47;15.77;;;;;;;;;;5101488;28;20883;-74
2024/01/05 02:13:48;;;;;;;32.67;16.47;;;;;;;;;;5090382;28;20522;-73
2024/01/05 02:16:14;;;;;;;29.93;14.87;;;;;;;;;;5088300;28;20466;-73
2024/01/05 02:18:41;;;;;;;33.70;16.50;;;;;;;;;;5096214;28;20469;-73
2024/01/05 02:21:07;;;;;;;31.73;15.47;;;;;;;;;;5095275;28;20478;-73
2024/01/05 02:23:36;;;;;;;35.00;15.63;;;;;;;;;;5092534;28;20957;-74
2024/01/05 02:26:02;;;;;;;30.17;15.67;;;;;;;;;;5087485;28;20577;-73
2024/01/05 02:28:29;;;;;;;32.57;15.47;;;;;;;;;;5094585;28;20802;-73
2024/01/05 02:30:55;;;;;;;30.63;15.67;;;;;;;;;;5090738;28;20569;-73
2024/01/05 02:33:22;;;;;;;33.90;16.07;;;;;;;;;;5099171;28;20454;-73
2024/01/05 02:35:48;;;;;;;35.70;15.73;;;;;;;;;;5095306;28;20529;-73
2024/01/05 02:38:15;;;;;;;40.83;16.30;;;;;;;;;;5086768;28;20479;-74
2024/01/05 02:40:42;;;;;;;31.00;15.17;;;;;;;;;;5103924;28;20533;-74
2024/01/05 02:43:09;;;;;;;31.00;15.47;;;;;;;;;;5092574;28;20446;-74
2024/01/05 02:45:35;;;;;;;24.77;14.80;;;;;;;;;;5090971;28;20525;-73
2024/01/05 02:48:02;;;;;;;34.63;15.10;;;;;;;;;;5091295;28;20465;-74
2024/01/05 02:50:28;;;;;;;27.67;14.87;;;;;;;;;;5095352;28;20458;-73
2024/01/05 02:52:54;;;;;;;30.23;15.77;;;;;;;;;;5093092;28;20905;-72
2024/01/05 02:55:21;;;;;;;26.00;13.60;;;;;;;;;;5100658;28;20896;-72
2024/01/05 02:57:48;;;;;;;28.13;13.47;;;;;;;;;;5094918;28;20475;-73
2024/01/05 03:00:15;;;;;;;27.77;15.00;;;;;;;;;;5088909;28;20515;-70
2024/01/05 03:02:41;;;;;;;31.10;13.33;;;;;;;;;;5103042;28;20509;-73
2024/01/05 03:05:08;;;;;;;26.50;12.93;;;;;;;;;;5095165;28;20470;-73
2024/01/05 03:07:34;;;;;;;22.93;13.03;;;;;;;;;;5098921;28;20574;-73
2024/01/05 03:10:01;;;;;;;27.93;12.27;;;;;;;;;;5088547;28;20477;-72
2024/01/05 03:12:27;;;;;;;21.70;10.60;;;;;;;;;;5092989;28;20477;-73
2024/01/05 03:14:55;;;;;;;25.23;12.70;;;;;;;;;;5087341;28;20757;-72
2024/01/05 03:17:21;;;;;;;29.43;12.90;;;;;;;;;;5102993;28;20555;-72
2024/01/05 03:19:48;;;;;;;25.70;12.83;;;;;;;;;;5095035;28;21204;-72
2024/01/05 03:22:14;;;;;;;27.23;12.30;;;;;;;;;;5097158;28;21035;-73
2024/01/05 03:24:42;;;;;;;29.93;12.23;;;;;;;;;;5093973;28;20470;-71
2024/01/05 03:27:12;;;;;;;25.77;11.63;;;;;;;;;;5096769;28;20478;-71
2024/01/05 03:29:39;;;;;;;23.20;11.47;;;;;;;;;;5094867;28;20455;-72
2024/01/05 03:32:07;;;;;;;28.73;11.70;;;;;;;;;;5092364;28;20462;-71
2024/01/05 03:34:33;;;;;;;20.80;10.40;;;;;;;;;;5109852;28;20441;-71
2024/01/05 03:37:00;;;;;;;27.70;11.20;;;;;;;;;;5099309;28;20481;-72
2024/01/05 03:39:26;;;;;;;16.87;10.63;;;;;;;;;;5102274;28;20474;-72
2024/01/05 03:41:53;;;;;;;20.63;9.70;;;;;;;;;;5096443;28;20447;-72
2024/01/05 03:44:21;;;;;;;25.53;9.90;;;;;;;;;;5090501;28;20448;-72
2024/01/05 03:46:48;;;;;;;21.60;9.57;;;;;;;;;;5097383;28;20481;-71
2024/01/05 03:49:16;;;;;;;23.10;9.50;;;;;;;;;;5099162;28;20466;-69
2024/01/05 03:51:43;;;;;;;22.33;10.43;;;;;;;;;;5095472;28;20568;-72
2024/01/05 03:54:09;;;;;;;20.83;9.33;;;;;;;;;;5096472;28;20454;-69
2024/01/05 03:56:38;;;;;;;24.70;10.00;;;;;;;;;;5095614;28;20485;-72
2024/01/05 03:59:05;;;;;;;17.47;8.37;;;;;;;;;;5096041;28;20481;-72
2024/01/05 04:01:31;;;;;;;24.97;9.10;;;;;;;;;;5100203;28;20446;-71
2024/01/05 04:03:58;;;;;;;23.20;8.93;;;;;;;;;;5102706;28;20617;-71
2024/01/05 04:06:26;;;;;;;17.53;8.87;;;;;;;;;;5098152;28;21246;-72
2024/01/05 04:08:52;;;;;;;22.60;9.20;;;;;;;;;;5103860;28;20816;-71
2024/01/05 04:11:20;;;;;;;16.83;8.30;;;;;;;;;;5094968;28;20459;-71
2024/01/05 04:13:46;;;;;;;14.70;8.60;;;;;;;;;;5091776;28;20444;-72
2024/01/05 04:16:13;;;;;;;20.60;9.07;;;;;;;;;;5094330;28;20478;-72
2024/01/05 04:18:39;;;;;;;13.33;8.60;;;;;;;;;;5102330;28;20494;-71
2024/01/05 04:21:05;;;;;;;19.77;9.33;;;;;;;;;;5093574;28;20494;-71
2024/01/05 04:23:33;;;;;;;16.50;9.07;;;;;;;;;;5098918;28;20514;-71
2024/01/05 04:26:00;;;;;;;19.60;10.23;;;;;;;;;;5101227;28;20541;-71
2024/01/05 04:28:26;;;;;;;19.57;8.60;;;;;;;;;;5097099;28;20466;-71
2024/01/05 04:30:53;;;;;;;20.13;9.30;;;;;;;;;;5098138;28;21096;-71
2024/01/05 04:33:19;;;;;;;16.73;8.47;;;;;;;;;;5101554;28;20973;-72
2024/01/05 04:35:46;;;;;;;12.13;7.93;;;;;;;;;;5090782;28;20589;-70
2024/01/05 04:38:12;;;;;;;17.13;8.10;;;;;;;;;;5096784;28;20470;-71
2024/01/05 04:40:40;;;;;;;15.97;8.53;;;;;;;;;;5093392;28;20486;-73
2024/01/05 04:43:07;;;;;;;20.53;10.40;;;;;;;;;;5094784;28;20490;-71
2024/01/05 04:45:33;;;;;;;16.33;9.67;;;;;;;;;;5096605;28;20464;-72
2024/01/05 04:48:00;;;;;;;14.53;8.20;;;;;;;;;;5096696;28;20632;-72
2024/01/05 04:50:26;;;;;;;17.50;9.00;;;;;;;;;;5100546;28;20466;-72
2024/01/05 04:52:52;;;;;;;14.67;8.87;;;;;;;;;;5102871;28;20539;-71
2024/01/05 04:55:20;;;;;;;23.50;10.37;;;;;;;;;;5095984;28;20519;-72
2024/01/05 04:57:48;;;;;;;18.03;8.60;;;;;;;;;;5095098;28;20483;-71
2024/01/05 05:00:14;;;;;;;17.50;8.13;;;;;;;;;;5088484;28;20490;-71
2024/01/05 05:02:41;;;;;;;16.43;9.33;;;;;;;;;;5095431;28;20523;-71
2024/01/05 05:05:08;;;;;;;14.40;9.23;;;;;;;;;;5081778;28;20516;-72
2024/01/05 05:07:34;;;;;;;16.20;7.80;;;;;;;;;;5087751;28;20478;-73
2024/01/05 05:10:00;;;;;;;19.67;8.80;;;;;;;;;;5101198;28;21272;-71
2024/01/05 05:12:27;;;;;;;28.77;9.40;;;;;;;;;;5096653;28;20510;-72
2024/01/05 05:14:54;;;;;;;17.53;8.20;;;;;;;;;;5094464;28;20491;-71
2024/01/05 05:17:21;;;;;;;16.23;8.03;;;;;;;;;;5093776;28;20530;-72
2024/01/05 05:19:47;;;;;;;17.43;8.90;;;;;;;;;;5090858;28;20526;-71
2024/01/05 05:22:14;;;;;;;19.07;8.17;;;;;;;;;;5089097;28;20459;-72
2024/01/05 05:24:40;;;;;;;17.60;8.60;;;;;;;;;;5098262;28;20442;-72
2024/01/05 05:27:07;;;;;;;15.70;8.13;;;;;;;;;;5096075;28;20522;-72
2024/01/05 05:29:33;;;;;;;18.50;8.00;;;;;;;;;;5093850;28;20455;-69
2024/01/05 05:32:01;;;;;;;15.70;8.70;;;;;;;;;;5091142;28;20459;-69
2024/01/05 05:34:27;;;;;;;17.50;8.47;;;;;;;;;;5098958;28;20439;-72
2024/01/05 05:36:54;;;;;;;16.03;8.70;;;;;;;;;;5094056;28;20865;-70
2024/01/05 05:39:20;;;;;;;19.83;9.20;;;;;;;;;;5094687;28;20876;-71
2024/01/05 05:41:46;;;;;;;17.33;8.93;;;;;;;;;;5100333;28;20458;-71
2024/01/05 05:44:13;;;;;;;23.13;9.80;;;;;;;;;;5096021;28;20505;-69
2024/01/05 05:46:39;;;;;;;21.53;8.73;;;;;;;;;;5089046;28;20474;-71
2024/01/05 05:49:07;;;;;;;22.23;9.83;;;;;;;;;;5096931;28;20463;-71
2024/01/05 05:51:34;;;;;;;20.00;11.13;;;;;;;;;;5092031;28;20460;-71
2024/01/05 05:54:00;;;;;;;16.80;9.73;;;;;;;;;;5098578;28;20953;-70
2024/01/05 05:56:26;;;;;;;18.10;11.07;;;;;;;;;;5101172;28;20515;-69
2024/01/05 05:58:53;;;;;;;23.77;10.07;;;;;;;;;;5093411;28;20502;-69
2024/01/05 06:01:19;;;;;;;19.30;10.97;;;;;;;;;;5088275;28;20474;-70
2024/01/05 06:03:45;;;;;;;19.70;10.77;;;;;;;;;;5091488;28;20516;-70
2024/01/05 06:06:21;;;;;;;23.47;11.10;;;;;;;;;;5098988;28;20471;-70
2024/01/05 06:08:47;;;;;;;19.03;9.80;;;;;;;;;;5090436;28;20511;-70
2024/01/05 06:11:15;;;;;;;18.87;9.70;;;;;;;;;;5100936;28;20467;-70
2024/01/05 06:13:42;;;;;;;17.90;9.83;;;;;;;;;;5092169;28;20447;-72
2024/01/05 06:16:08;;;;;;;20.50;9.67;;;;;;;;;;5094253;28;20509;-69
2024/01/05 06:18:35;;;;;;;23.50;9.87;;;;;;;;;;5095281;28;20720;-71
2024/01/05 06:21:01;;;;;;;22.43;10.57;;;;;;;;;;5099156;28;20527;-71
2024/01/05 06:23:29;;;;;;;22.13;10.60;;;;;;;;;;5094746;28;20474;-71
2024/01/05 06:25:56;;;;;;;22.50;9.40;;;;;;;;;;5091592;28;21306;-72
2024/01/05 06:28:22;;;;;;;17.87;10.13;;;;;;;;;;5102215;28;20550;-68
2024/01/05 06:30:48;;;;;;;20.27;9.57;;;;;;;;;;5089954;28;20533;-70
2024/01/05 06:33:15;;;;;;;24.17;10.73;;;;;;;;;;5096793;28;20519;-68
2024/01/05 06:35:41;;;;;;;14.37;8.53;;;;;;;;;;5095414;28;20515;-70
2024/01/05 06:38:07;;;;;;;18.13;9.80;;;;;;;;;;5087131;28;20474;-70
2024/01/05 06:40:35;;;;;;;17.23;9.27;;;;;;;;;;5095640;28;20448;-71
2024/01/05 06:43:02;;;;;;;19.00;9.90;;;;;;;;;;5092737;28;20505;-68
2024/01/05 06:45:28;;;;;;;23.50;9.80;;;;;;;;;;5096549;28;20483;-70
2024/01/05 06:47:55;;;;;;;12.80;8.33;;;;;;;;;;5099616;28;20546;-70
2024/01/05 06:50:21;;;;;;;26.10;9.10;;;;;;;;;;5096828;28;20546;-71
2024/01/05 06:52:48;;;;;;;18.13;8.97;;;;;;;;;;5092043;28;20463;-71
2024/01/05 06:55:14;;;;;;;24.90;9.97;;;;;;;;;;5095183;28;20478;-70
2024/01/05 06:57:42;;;;;;;16.40;9.83;;;;;;;;;;5091732;28;20526;-71
2024/01/05 07:00:10;;;;;;;23.70;10.20;;;;;;;;;;5101069;28;20460;-70
2024/01/05 07:02:37;;;;;;;23.67;9.80;;;;;;;;;;5099013;28;20443;-71
2024/01/05 07:05:03;;;;;;;20.70;10.60;;;;;;;;;;5097081;28;20457;-71
2024/01/05 07:07:30;;;;;;;18.57;9.97;;;;;;;;;;5095226;28;20495;-72
2024/01/05 07:09:56;;;;;;;20.47;10.63;;;;;;;;;;5101957;28;20469;-69
2024/01/05 07:12:22;;;;;;;20.07;9.90;;;;;;;;;;5105151;28;20475;-68
2024/01/05 07:14:50;;;;;;;20.90;10.50;;;;;;;;;;5103040;28;20573;-70
2024/01/05 07:17:17;;;;;;;21.17;10.60;;;;;;;;;;5093406;28;21071;-72
2024/01/05 07:19:43;;;;;;;20.40;10.57;;;;;;;;;;5087239;28;20459;-70
2024/01/05 07:22:09;;;;;;;19.50;10.60;;;;;;;;;;5092461;28;20452;-71
2024/01/05 07:24:37;;;;;;;22.63;11.30;;;;;;;;;;5095678;28;20561;-71
2024/01/05 07:27:03;;;;;;;22.80;10.90;;;;;;;;;;5097236;28;20538;-71
2024/01/05 07:29:30;;;;;;;21.03;10.63;;;;;;;;;;5104145;28;20969;-71
2024/01/05 07:31:58;;;;;;;19.83;11.40;;;;;;;;;;5099221;28;20611;-71
2024/01/05 07:34:24;;;;;;;21.63;10.87;;;;;;;;;;5103715;28;20467;-71
2024/01/05 07:36:50;;;;;;;26.57;12.90;;;;;;;;;;5107722;28;20573;-71
2024/01/05 07:39:17;;;;;;;25.47;11.30;;;;;;;;;;5099022;28;20933;-72
2024/01/05 07:41:43;;;;;;;31.67;12.03;;;;;;;;;;5099177;28;20479;-71
2024/01/05 07:44:10;;;;;;;24.33;11.30;;;;;;;;;;5108897;28;20479;-70
2024/01/05 07:46:40;;;;;;;28.67;12.70;;;;;;;;;;5104990;28;20929;-71
2024/01/05 07:49:08;;;;;;;28.63;12.37;;;;;;;;;;5101727;28;20591;-69
2024/01/05 07:51:34;;;;;;;21.80;12.33;;;;;;;;;;5101552;28;20579;-71
2024/01/05 07:54:01;;;;;;;25.63;11.10;;;;;;;;;;5096080;28;20539;-71
2024/01/05 07:56:27;;;;;;;19.47;12.40;;;;;;;;;;5099576;28;20487;-70
2024/01/05 07:58:54;;;;;;;19.23;11.37;;;;;;;;;;5094461;28;20491;-71
2024/01/05 08:01:21;;;;;;;23.10;11.60;;;;;;;;;;5114422;28;20473;-70
2024/01/05 08:03:48;;;;;;;27.07;10.80;;;;;;;;;;5101641;28;20471;-69
2024/01/05 08:06:16;;;;;;;20.07;11.50;;;;;;;;;;5098534;28;20541;-70
2024/01/05 08:08:43;;;;;;;20.90;10.47;;;;;;;;;;5098593;28;20482;-70
2024/01/05 08:11:10;;;;;;;17.37;10.43;;;;;;;;;;5089131;28;20456;-69
2024/01/05 08:13:36;;;;;;;22.73;10.37;;;;;;;;;;5104590;28;20511;-71
2024/01/05 08:16:03;;;;;;;23.80;10.00;;;;;;;;;;5102226;28;20515;-71
2024/01/05 08:18:29;;;;;;;26.03;11.63;;;;;;;;;;5106313;28;20448;-71
2024/01/05 08:20:56;;;;;;;21.63;10.70;;;;;;;;;;5098311;28;20451;-71
2024/01/05 08:23:23;;;;;;;23.63;10.40;;;;;;;;;;5100591;28;20561;-72
2024/01/05 08:25:50;;;;;;;21.63;11.10;;;;;;;;;;5104178;28;20518;-71
2024/01/05 08:28:16;;;;;;;19.73;9.50;;;;;;;;;;5101807;28;20473;-71
2024/01/05 08:30:43;;;;;;;23.70;10.73;;;;;;;;;;5099772;28;20498;-71
2024/01/05 08:33:10;;;;;;;22.07;11.33;;;;;;;;;;5093948;28;20451;-70
2024/01/05 08:35:36;;;;;;;21.97;10.43;;;;;;;;;;5097958;28;20491;-72
2024/01/05 08:38:03;;;;;;;27.47;11.00;;;;;;;;;;5105328;28;20476;-72
2024/01/05 08:40:31;;;;;;;26.17;10.70;;;;;;;;;;5097794;28;20839;-71
2024/01/05 08:42:58;;;;;;;20.67;11.17;;;;;;;;;;5103674;28;20504;-70
2024/01/05 08:45:24;;;;;;;20.53;12.07;;;;;;;;;;5104973;28;20458;-71
2024/01/05 08:47:52;;;;;;;25.70;11.17;;;;;;;;;;5089794;28;20924;-71
2024/01/05 08:50:18;;;;;;;22.53;12.10;;;;;;;;;;5107915;28;20447;-71
2024/01/05 08:52:45;;;;;;;23.73;11.67;;;;;;;;;;5096283;28;20483;-70
2024/01/05 08:55:14;;;;;;;24.67;12.03;;;;;;;;;;5110192;28;20506;-72
2024/01/05 08:57:42;;;;;;;15.80;10.07;;;;;;;;;;5100984;28;20447;-70
2024/01/05 09:00:10;;;;;;;18.80;10.10;;;;;;;;;;5085484;28;20479;-71
2024/01/05 09:02:36;;;;;;;20.43;10.90;;;;;;;;;;5090842;28;20446;-70
2024/01/05 09:05:04;;;;;;;22.50;10.57;;;;;;;;;;5105108;28;21117;-69
2024/01/05 09:07:30;;;;;;;19.83;10.97;;;;;;;;;;5097261;28;20511;-74
2024/01/05 09:09:56;;;;;;;15.63;9.97;;;;;;;;;;5095849;28;20485;-74
2024/01/05 09:12:23;;;;;;;22.13;10.37;;;;;;;;;;5110709;28;20538;-74
2024/01/05 09:14:50;;;;;;;14.00;7.70;;;;;;;;;;5099982;28;20450;-74
2024/01/05 09:17:17;;;;;;;13.03;7.70;;;;;;;;;;5100526;28;20446;-75
2024/01/05 09:19:44;;;;;;;12.73;8.10;;;;;;;;;;5095297;28;20452;-73
2024/01/05 09:22:10;;;;;;;11.33;7.23;;;;;;;;;;5100749;28;20562;-67
2024/01/05 09:24:37;;;;;;;13.40;7.13;;;;;;;;;;5103632;28;20450;-70
2024/01/05 09:27:04;;;;;;;15.87;7.20;;;;;;;;;;5101601;28;20516;-69
2024/01/05 09:29:31;;;;;;;18.10;7.77;;;;;;;;;;5086759;28;21189;-70
2024/01/05 09:31:58;;;;;;;16.33;6.87;;;;;;;;;;5091120;28;20483;-70
2024/01/05 09:34:25;;;;;;;18.87;7.00;;;;;;;;;;5087625;28;20470;-70
2024/01/05 09:36:53;;;;;;;14.30;7.67;;;;;;;;;;5092779;28;20511;-70
2024/01/05 09:39:19;;;;;;;14.33;7.60;;;;;;;;;;5085938;28;20451;-70
2024/01/05 09:41:47;;;;;;;15.50;6.20;;;;;;;;;;5085254;28;20547;-70
2024/01/05 09:44:13;;;;;;;12.53;6.10;;;;;;;;;;5084586;28;20541;-69
2024/01/05 09:46:40;;;;;;;14.60;5.80;;;;;;;;;;5088181;28;20452;-70
2024/01/05 09:49:08;;;;;;;9.63;5.07;;;;;;;;;;5085826;28;20491;-70
2024/01/05 09:51:35;;;;;;;9.80;5.50;;;;;;;;;;5088772;28;20656;-69
2024/01/05 09:54:01;;;;;;;9.10;4.60;;;;;;;;;;5091054;28;20513;-70
2024/01/05 09:56:28;;;;;;;11.43;4.97;;;;;;;;;;5086979;28;20473;-70
2024/01/05 09:58:55;;;;;;;15.00;4.80;;;;;;;;;;5094761;28;20543;-70
2024/01/05 10:01:24;;;;;;;9.77;5.67;;;;;;;;;;5088394;28;20499;-70
2024/01/05 10:03:54;;;;;;;12.10;4.87;;;;;;;;;;5093390;28;20454;-69
2024/01/05 10:06:22;;;;;;;10.30;4.67;;;;;;;;;;5091979;28;20457;-70
2024/01/05 10:08:52;;;;;;;14.03;4.73;;;;;;;;;;5089661;28;20863;-70
2024/01/05 10:11:27;;;;;;;12.60;4.77;;;;;;;;;;5093499;28;20454;-70
2024/01/05 10:13:54;;;;;;;7.80;4.03;;;;;;;;;;5097236;28;20477;-69
2024/01/05 10:16:23;;;;;;;9.10;4.20;;;;;;;;;;5097136;28;20478;-70
2024/01/05 10:18:50;;;;;;;9.10;3.63;;;;;;;;;;5096270;28;20489;-68
2024/01/05 10:21:18;;;;;;;12.40;3.83;;;;;;;;;;5098045;28;20474;-67
2024/01/05 10:23:46;;;;;;;11.63;4.03;;;;;;;;;;5100152;28;20494;-68
2024/01/05 10:26:16;;;;;;;7.83;4.00;;;;;;;;;;5093014;28;20967;-69
2024/01/05 10:28:42;;;;;;;9.40;4.80;;;;;;;;;;5095154;28;21414;-70
2024/01/05 10:31:13;;;;;;;5.43;3.40;;;;;;;;;;5098942;28;21104;-70
2024/01/05 10:33:51;;;;;;;8.53;3.57;;;;;;;;;;5097316;28;20432;-70
2024/01/05 10:36:21;;;;;;;9.13;3.83;;;;;;;;;;5098062;28;20558;-70
2024/01/05 10:38:56;;;;;;;12.23;3.93;;;;;;;;;;5100590;28;21275;-70
2024/01/05 10:41:22;;;;;;;4.50;3.30;;;;;;;;;;5097625;28;20465;-69
2024/01/05 10:43:49;;;;;;;8.00;3.40;;;;;;;;;;5101548;28;20443;-69
2024/01/05 10:46:18;;;;;;;10.17;4.27;;;;;;;;;;5099811;28;20555;-70
2024/01/05 10:48:45;;;;;;;11.67;4.03;;;;;;;;;;5095170;28;20490;-69
2024/01/05 10:51:12;;;;;;;7.47;3.10;;;;;;;;;;5101205;28;20506;-69
2024/01/05 10:53:38;;;;;;;11.73;4.13;;;;;;;;;;5105733;28;20487;-69
2024/01/05 10:56:07;;;;;;;7.30;3.80;;;;;;;;;;5100574;28;20466;-68
2024/01/05 10:58:34;;;;;;;6.73;3.60;;;;;;;;;;5104152;28;20518;-69
2024/01/05 11:01:01;;;;;;;9.53;3.90;;;;;;;;;;5091645;28;20462;-68
2024/01/05 11:03:30;;;;;;;4.90;3.20;;;;;;;;;;5102919;28;20491;-68
2024/01/05 11:05:57;;;;;;;10.10;3.63;;;;;;;;;;5101355;28;20473;-68
2024/01/05 11:08:29;;;;;;;6.73;3.73;;;;;;;;;;5100019;28;20546;-68
2024/01/05 11:11:01;;;;;;;7.60;3.63;;;;;;;;;;5102471;28;20455;-69
2024/01/05 11:13:42;;;;;;;8.80;3.40;;;;;;;;;;5108290;28;20458;-68
2024/01/05 11:16:18;;;;;;;9.10;4.90;;;;;;;;;;5082654;28;20519;-68
2024/01/05 11:19:03;;;;;;;5.60;3.20;;;;;;;;;;5091331;28;20474;-69
2024/01/05 11:21:36;;;;;;;13.90;3.90;;;;;;;;;;5086952;28;20486;-69
2024/01/05 11:24:03;;;;;;;9.20;3.37;;;;;;;;;;5097866;28;20474;-69
2024/01/05 11:26:30;;;;;;;4.53;3.30;;;;;;;;;;5095838;28;20449;-68
2024/01/05 11:28:56;;;;;;;5.43;3.57;;;;;;;;;;5096098;28;20479;-69
2024/01/05 11:31:38;;;;;;;7.60;3.10;;;;;;;;;;5093802;28;20545;-71
2024/01/05 11:34:05;;;;;;;5.30;3.47;;;;;;;;;;5090914;28;20467;-71
2024/01/05 11:36:51;;;;;;;8.57;3.70;;;;;;;;;;5089911;28;20550;-71
2024/01/05 11:39:32;;;;;;;7.63;3.40;;;;;;;;;;5094852;28;20447;-71
2024/01/05 11:41:58;;;;;;;8.50;3.80;;;;;;;;;;5097071;28;20533;-71
2024/01/05 11:44:35;;;;;;;4.17;3.30;;;;;;;;;;5094445;28;20491;-71
2024/01/05 11:47:02;;;;;;;3.40;3.00;;;;;;;;;;5098523;28;20511;-71
2024/01/05 11:49:41;;;;;;;4.30;3.20;;;;;;;;;;5103220;28;20932;-71
2024/01/05 11:52:07;;;;;;;6.20;2.60;;;;;;;;;;5105063;28;20462;-71
2024/01/05 11:54:34;;;;;;;4.37;2.93;;;;;;;;;;5100655;28;20558;-71
2024/01/05 11:57:01;;;;;;;4.40;3.60;;;;;;;;;;5099087;28;20466;-69
2024/01/05 11:59:27;;;;;;;5.20;3.10;;;;;;;;;;5102570;28;20447;-70
2024/01/05 12:01:54;;;;;;;3.57;2.73;;;;;;;;;;5095707;28;20565;-70
2024/01/05 12:04:20;;;;;;;6.60;3.77;;;;;;;;;;5104295;28;20542;-71
2024/01/05 12:06:52;;;;;;;6.80;3.00;;;;;;;;;;5106209;28;20462;-70
2024/01/05 12:09:19;;;;;;;5.60;3.30;;;;;;;;;;5097658;28;20507;-69
2024/01/05 12:11:46;;;;;;;5.10;3.80;;;;;;;;;;5093410;28;21003;-69
2024/01/05 12:14:12;;;;;;;4.30;3.57;;;;;;;;;;5104567;28;20864;-69
2024/01/05 12:16:39;;;;;;;4.30;2.97;;;;;;;;;;5099862;28;20480;-70
2024/01/05 12:19:05;;;;;;;8.20;2.90;;;;;;;;;;5091551;28;20474;-69
2024/01/05 12:21:31;;;;;;;4.17;2.77;;;;;;;;;;5101289;28;20458;-69
2024/01/05 12:24:02;;;;;;;4.63;2.40;;;;;;;;;;5089189;28;20462;-70
2024/01/05 12:26:29;;;;;;;4.70;3.73;;;;;;;;;;5103482;28;20458;-69
2024/01/05 12:28:56;;;;;;;2.83;2.50;;;;;;;;;;5103725;28;20484;-70
2024/01/05 12:31:22;;;;;;;3.10;2.90;;;;;;;;;;5092298;28;20466;-69
2024/01/05 12:33:49;;;;;;;2.97;2.77;;;;;;;;;;5095377;28;20463;-70
2024/01/05 12:36:24;;;;;;;4.67;3.20;;;;;;;;;;5088115;28;20558;-71
2024/01/05 12:38:50;;;;;;;3.33;2.97;;;;;;;;;;5087235;28;21255;-71
2024/01/05 12:41:19;;;;;;;6.03;3.67;;;;;;;;;;5090877;28;20525;-71
2024/01/05 12:43:46;;;;;;;3.57;3.27;;;;;;;;;;5097109;28;20471;-71
2024/01/05 12:46:13;;;;;;;4.00;3.70;;;;;;;;;;5093677;28;20457;-70
2024/01/05 12:48:40;;;;;;;6.40;3.60;;;;;;;;;;5091644;28;20446;-70
2024/01/05 12:51:07;;;;;;;5.77;4.10;;;;;;;;;;5090587;28;21015;-70
2024/01/05 12:53:34;;;;;;;4.70;3.40;;;;;;;;;;5090254;28;20467;-69
2024/01/05 12:56:07;;;;;;;4.97;4.40;;;;;;;;;;5092214;28;20472;-69
2024/01/05 12:58:39;;;;;;;4.00;3.80;;;;;;;;;;5091899;28;20450;-69
2024/01/05 13:01:06;;;;;;;4.33;4.13;;;;;;;;;;5086117;28;20475;-68
2024/01/05 13:03:32;;;;;;;4.83;4.43;;;;;;;;;;5087995;28;20538;-69
2024/01/05 13:06:07;;;;;;;4.20;4.00;;;;;;;;;;5087191;28;20439;-69
2024/01/05 13:08:35;;;;;;;4.47;4.20;;;;;;;;;;5096803;28;20479;-70
2024/01/05 13:11:01;;;;;;;4.30;4.07;;;;;;;;;;5088226;28;20481;-71
2024/01/05 13:13:27;;;;;;;4.60;4.23;;;;;;;;;;5093586;28;21112;-70
2024/01/05 13:15:55;;;;;;;5.00;4.70;;;;;;;;;;5086269;28;20482;-70
2024/01/05 13:18:22;;;;;;;5.00;4.70;;;;;;;;;;5092009;28;20443;-70
2024/01/05 13:20:48;;;;;;;5.20;4.80;;;;;;;;;;5089674;28;20489;-70
2024/01/05 13:23:14;;;;;;;4.77;4.57;;;;;;;;;;5095269;28;20537;-69
2024/01/05 13:25:41;;;;;;;4.80;4.17;;;;;;;;;;5085652;28;20483;-69
2024/01/05 13:28:07;;;;;;;4.57;4.37;;;;;;;;;;5087925;28;20483;-69
2024/01/05 13:30:33;;;;;;;4.60;4.30;;;;;;;;;;5086143;28;21821;-70
2024/01/05 13:33:01;;;;;;;4.43;4.23;;;;;;;;;;5094744;28;20446;-69
2024/01/05 13:35:28;;;;;;;5.37;5.07;;;;;;;;;;5090599;28;20578;-69
2024/01/05 13:37:54;;;;;;;3.87;3.67;;;;;;;;;;5088506;28;20516;-69
2024/01/05 13:40:20;;;;;;;4.07;3.87;;;;;;;;;;5097227;28;20474;-69
2024/01/05 13:42:47;;;;;;;3.53;3.33;;;;;;;;;;5092094;28;20492;-69
2024/01/05 13:45:14;;;;;;;4.33;4.07;;;;;;;;;;5094430;28;20513;-69
2024/01/05 13:47:40;;;;;;;3.70;3.50;;;;;;;;;;5090861;28;20447;-70
2024/01/05 13:50:09;;;;;;;4.23;4.03;;;;;;;;;;5090301;28;20510;-70
2024/01/05 13:52:35;;;;;;;4.70;4.50;;;;;;;;;;5084737;28;20490;-70
2024/01/05 13:55:01;;;;;;;4.53;4.23;;;;;;;;;;5090743;28;20451;-70
2024/01/05 13:57:28;;;;;;;4.43;4.03;;;;;;;;;;5085142;28;20432;-70
2024/01/05 13:59:54;;;;;;;4.77;4.57;;;;;;;;;;5085099;28;20471;-70
2024/01/05 14:02:20;;;;;;;4.70;4.40;;;;;;;;;;5086331;28;20495;-69
2024/01/05 14:04:47;;;;;;;6.80;4.70;;;;;;;;;;5089245;28;20518;-69
2024/01/05 14:07:15;;;;;;;5.47;5.07;;;;;;;;;;5090739;28;20447;-69
2024/01/05 14:09:42;;;;;;;5.30;5.00;;;;;;;;;;5091064;28;20489;-69
2024/01/05 14:12:09;;;;;;;4.90;4.50;;;;;;;;;;5089391;28;20571;-69
2024/01/05 14:14:35;;;;;;;5.23;4.93;;;;;;;;;;5089938;28;20506;-70
2024/01/05 14:17:02;;;;;;;5.37;5.03;;;;;;;;;;5090296;28;20574;-68
2024/01/05 14:19:28;;;;;;;4.90;4.70;;;;;;;;;;5100284;28;20520;-68
2024/01/05 14:21:55;;;;;;;4.33;4.13;;;;;;;;;;5098193;28;21479;-69
2024/01/05 14:24:23;;;;;;;5.20;5.00;;;;;;;;;;5087924;28;20466;-68
2024/01/05 14:26:50;;;;;;;5.10;4.80;;;;;;;;;;5102145;28;20443;-69
2024/01/05 14:29:17;;;;;;;5.43;5.23;;;;;;;;;;5088898;28;20606;-69